sensor_id;sensor_type;location;lat;lon;timestamp;P1;durP1;ratioP1;P2;durP2;ratioP2
18574;SDS011;9417;16.484;102.872;2024-02-26T00:03:11;11.40;;;9.97;;
18574;SDS011;9417;16.484;102.872;2024-02-26T00:07:13;12.98;;;9.98;;
18574;SDS011;9417;16.484;102.872;2024-02-26T00:11:16;15.27;;;10.73;;
18574;SDS011;9417;16.484;102.872;2024-02-26T00:15:39;16.10;;;10.40;;
18574;SDS011;9417;16.484;102.872;2024-02-26T00:20:08;12.68;;;9.88;;
18574;SDS011;9417;16.484;102.872;2024-02-26T00:24:12;17.00;;;11.27;;
18574;SDS011;9417;16.484;102.872;2024-02-26T00:28:20;16.52;;;11.13;;
18574;SDS011;9417;16.484;102.872;2024-02-26T00:32:30;16.95;;;10.90;;
18574;SDS011;9417;16.484;102.872;2024-02-26T00:36:59;13.38;;;10.10;;
18574;SDS011;9417;16.484;102.872;2024-02-26T00:41:17;15.95;;;10.75;;
18574;SDS011;9417;16.484;102.872;2024-02-26T00:45:19;15.65;;;9.65;;
18574;SDS011;9417;16.484;102.872;2024-02-26T00:50:07;16.85;;;10.13;;
18574;SDS011;9417;16.484;102.872;2024-02-26T00:54:15;15.50;;;11.02;;
18574;SDS011;9417;16.484;102.872;2024-02-26T00:58:20;15.65;;;10.85;;
18574;SDS011;9417;16.484;102.872;2024-02-26T01:06:55;15.05;;;11.40;;
18574;SDS011;9417;16.484;102.872;2024-02-26T01:11:04;13.13;;;10.75;;
18574;SDS011;9417;16.484;102.872;2024-02-26T01:15:26;14.88;;;11.35;;
18574;SDS011;9417;16.484;102.872;2024-02-26T01:19:50;16.05;;;11.23;;
18574;SDS011;9417;16.484;102.872;2024-02-26T01:34:27;16.92;;;10.77;;
18574;SDS011;9417;16.484;102.872;2024-02-26T01:48:53;16.20;;;10.02;;
18574;SDS011;9417;16.484;102.872;2024-02-26T01:58:27;14.90;;;10.20;;
18574;SDS011;9417;16.484;102.872;2024-02-26T02:07:48;15.65;;;11.20;;
18574;SDS011;9417;16.484;102.872;2024-02-26T02:13:06;14.00;;;10.68;;
18574;SDS011;9417;16.484;102.872;2024-02-26T02:23:03;14.85;;;10.77;;
18574;SDS011;9417;16.484;102.872;2024-02-26T02:43:15;15.75;;;11.65;;
18574;SDS011;9417;16.484;102.872;2024-02-26T03:14:03;15.95;;;11.38;;
18574;SDS011;9417;16.484;102.872;2024-02-26T03:23:17;14.45;;;11.00;;
18574;SDS011;9417;16.484;102.872;2024-02-26T03:27:59;16.58;;;10.90;;
18574;SDS011;9417;16.484;102.872;2024-02-26T03:32:22;16.77;;;11.70;;
18574;SDS011;9417;16.484;102.872;2024-02-26T03:36:51;16.57;;;11.60;;
18574;SDS011;9417;16.484;102.872;2024-02-26T03:41:02;18.02;;;11.38;;
18574;SDS011;9417;16.484;102.872;2024-02-26T03:45:13;15.80;;;11.82;;
18574;SDS011;9417;16.484;102.872;2024-02-26T03:49:36;19.23;;;12.00;;
18574;SDS011;9417;16.484;102.872;2024-02-26T03:53:59;13.95;;;10.68;;
18574;SDS011;9417;16.484;102.872;2024-02-26T03:58:25;17.55;;;11.60;;
18574;SDS011;9417;16.484;102.872;2024-02-26T04:07:09;17.88;;;11.55;;
18574;SDS011;9417;16.484;102.872;2024-02-26T04:11:19;16.90;;;10.75;;
18574;SDS011;9417;16.484;102.872;2024-02-26T04:15:47;17.17;;;10.70;;
18574;SDS011;9417;16.484;102.872;2024-02-26T04:20:59;19.17;;;11.43;;
18574;SDS011;9417;16.484;102.872;2024-02-26T04:25:25;17.45;;;10.80;;
18574;SDS011;9417;16.484;102.872;2024-02-26T04:34:46;14.20;;;9.83;;
18574;SDS011;9417;16.484;102.872;2024-02-26T04:39:19;16.15;;;10.57;;
18574;SDS011;9417;16.484;102.872;2024-02-26T04:53:40;13.90;;;9.67;;
18574;SDS011;9417;16.484;102.872;2024-02-26T04:58:25;16.45;;;9.98;;
18574;SDS011;9417;16.484;102.872;2024-02-26T05:02:45;14.90;;;10.50;;
18574;SDS011;9417;16.484;102.872;2024-02-26T05:07:11;16.85;;;9.90;;
18574;SDS011;9417;16.484;102.872;2024-02-26T05:11:54;14.77;;;9.57;;
18574;SDS011;9417;16.484;102.872;2024-02-26T05:16:20;12.20;;;8.88;;
18574;SDS011;9417;16.484;102.872;2024-02-26T05:26:18;13.05;;;9.43;;
18574;SDS011;9417;16.484;102.872;2024-02-26T05:31:12;14.57;;;9.30;;
18574;SDS011;9417;16.484;102.872;2024-02-26T05:35:58;15.20;;;9.75;;
18574;SDS011;9417;16.484;102.872;2024-02-26T05:50:29;14.70;;;9.90;;
18574;SDS011;9417;16.484;102.872;2024-02-26T06:15:51;16.52;;;10.68;;
18574;SDS011;9417;16.484;102.872;2024-02-26T06:19:59;15.50;;;9.70;;
18574;SDS011;9417;16.484;102.872;2024-02-26T06:24:01;17.27;;;10.38;;
18574;SDS011;9417;16.484;102.872;2024-02-26T06:28:06;14.77;;;10.38;;
18574;SDS011;9417;16.484;102.872;2024-02-26T06:32:20;15.88;;;10.40;;
18574;SDS011;9417;16.484;102.872;2024-02-26T06:36:30;13.23;;;10.88;;
18574;SDS011;9417;16.484;102.872;2024-02-26T06:40:45;20.52;;;12.15;;
18574;SDS011;9417;16.484;102.872;2024-02-26T06:45:03;16.73;;;10.90;;
18574;SDS011;9417;16.484;102.872;2024-02-26T06:49:07;17.38;;;12.18;;
18574;SDS011;9417;16.484;102.872;2024-02-26T06:53:18;15.30;;;11.68;;
18574;SDS011;9417;16.484;102.872;2024-02-26T06:57:26;16.35;;;11.13;;
18574;SDS011;9417;16.484;102.872;2024-02-26T07:01:46;16.00;;;12.27;;
18574;SDS011;9417;16.484;102.872;2024-02-26T07:05:48;16.35;;;11.55;;
18574;SDS011;9417;16.484;102.872;2024-02-26T07:09:59;15.48;;;11.88;;
18574;SDS011;9417;16.484;102.872;2024-02-26T07:14:07;14.27;;;11.82;;
18574;SDS011;9417;16.484;102.872;2024-02-26T07:18:12;16.77;;;13.57;;
18574;SDS011;9417;16.484;102.872;2024-02-26T07:22:37;18.95;;;12.75;;
18574;SDS011;9417;16.484;102.872;2024-02-26T07:27:10;19.38;;;12.23;;
18574;SDS011;9417;16.484;102.872;2024-02-26T07:41:35;14.35;;;12.35;;
18574;SDS011;9417;16.484;102.872;2024-02-26T07:46:00;15.10;;;12.30;;
18574;SDS011;9417;16.484;102.872;2024-02-26T07:50:02;18.33;;;13.25;;
18574;SDS011;9417;16.484;102.872;2024-02-26T08:00:03;15.45;;;12.63;;
18574;SDS011;9417;16.484;102.872;2024-02-26T08:04:57;19.25;;;13.15;;
18574;SDS011;9417;16.484;102.872;2024-02-26T08:09:57;19.33;;;14.07;;
18574;SDS011;9417;16.484;102.872;2024-02-26T08:14:05;18.75;;;12.82;;
18574;SDS011;9417;16.484;102.872;2024-02-26T08:18:33;20.70;;;13.82;;
18574;SDS011;9417;16.484;102.872;2024-02-26T08:23:07;22.13;;;14.63;;
18574;SDS011;9417;16.484;102.872;2024-02-26T08:27:59;20.10;;;13.50;;
18574;SDS011;9417;16.484;102.872;2024-02-26T08:32:37;17.70;;;13.85;;
18574;SDS011;9417;16.484;102.872;2024-02-26T08:36:56;17.02;;;13.98;;
18574;SDS011;9417;16.484;102.872;2024-02-26T08:41:08;19.33;;;14.50;;
18574;SDS011;9417;16.484;102.872;2024-02-26T08:45:13;21.90;;;15.05;;
18574;SDS011;9417;16.484;102.872;2024-02-26T08:49:46;17.40;;;13.52;;
18574;SDS011;9417;16.484;102.872;2024-02-26T08:59:12;18.67;;;13.70;;
18574;SDS011;9417;16.484;102.872;2024-02-26T09:03:23;15.68;;;13.25;;
18574;SDS011;9417;16.484;102.872;2024-02-26T09:17:14;18.02;;;14.25;;
18574;SDS011;9417;16.484;102.872;2024-02-26T09:26:21;15.80;;;14.18;;
18574;SDS011;9417;16.484;102.872;2024-02-26T09:31:01;18.67;;;14.90;;
18574;SDS011;9417;16.484;102.872;2024-02-26T09:36:02;22.45;;;15.07;;
18574;SDS011;9417;16.484;102.872;2024-02-26T09:50:20;18.98;;;14.10;;
18574;SDS011;9417;16.484;102.872;2024-02-26T09:59:22;21.50;;;13.70;;
18574;SDS011;9417;16.484;102.872;2024-02-26T10:08:48;19.23;;;14.18;;
18574;SDS011;9417;16.484;102.872;2024-02-26T10:12:54;19.25;;;15.07;;
18574;SDS011;9417;16.484;102.872;2024-02-26T10:17:19;21.13;;;14.23;;
18574;SDS011;9417;16.484;102.872;2024-02-26T10:21:46;17.67;;;14.18;;
18574;SDS011;9417;16.484;102.872;2024-02-26T10:30:51;19.83;;;15.52;;
18574;SDS011;9417;16.484;102.872;2024-02-26T10:34:56;18.60;;;14.82;;
18574;SDS011;9417;16.484;102.872;2024-02-26T10:38:58;21.75;;;15.05;;
18574;SDS011;9417;16.484;102.872;2024-02-26T10:53:22;24.45;;;15.60;;
18574;SDS011;9417;16.484;102.872;2024-02-26T10:58:01;24.25;;;16.33;;
18574;SDS011;9417;16.484;102.872;2024-02-26T11:02:09;22.63;;;16.70;;
18574;SDS011;9417;16.484;102.872;2024-02-26T11:06:13;25.13;;;16.50;;
18574;SDS011;9417;16.484;102.872;2024-02-26T11:10:18;21.88;;;17.45;;
18574;SDS011;9417;16.484;102.872;2024-02-26T11:14:20;24.63;;;17.10;;
18574;SDS011;9417;16.484;102.872;2024-02-26T11:18:29;19.63;;;17.55;;
18574;SDS011;9417;16.484;102.872;2024-02-26T11:22:32;25.92;;;18.98;;
18574;SDS011;9417;16.484;102.872;2024-02-26T11:27:24;23.75;;;17.33;;
18574;SDS011;9417;16.484;102.872;2024-02-26T11:31:06;29.80;;;20.45;;
18574;SDS011;9417;16.484;102.872;2024-02-26T11:35:20;30.35;;;17.70;;
18574;SDS011;9417;16.484;102.872;2024-02-26T11:39:29;30.85;;;19.67;;
18574;SDS011;9417;16.484;102.872;2024-02-26T11:52:38;31.60;;;22.27;;
18574;SDS011;9417;16.484;102.872;2024-02-26T12:02:03;41.13;;;23.60;;
18574;SDS011;9417;16.484;102.872;2024-02-26T12:15:04;35.40;;;23.92;;
18574;SDS011;9417;16.484;102.872;2024-02-26T12:19:18;30.23;;;24.42;;
18574;SDS011;9417;16.484;102.872;2024-02-26T12:23:20;34.92;;;25.17;;
18574;SDS011;9417;16.484;102.872;2024-02-26T12:32:41;37.33;;;26.38;;
18574;SDS011;9417;16.484;102.872;2024-02-26T12:37:32;36.28;;;26.13;;
18574;SDS011;9417;16.484;102.872;2024-02-26T12:41:21;37.28;;;27.95;;
18574;SDS011;9417;16.484;102.872;2024-02-26T12:45:26;39.42;;;28.38;;
18574;SDS011;9417;16.484;102.872;2024-02-26T12:49:37;39.33;;;28.33;;
18574;SDS011;9417;16.484;102.872;2024-02-26T12:53:48;34.47;;;28.40;;
18574;SDS011;9417;16.484;102.872;2024-02-26T12:58:01;40.20;;;28.65;;
18574;SDS011;9417;16.484;102.872;2024-02-26T13:02:18;50.78;;;30.88;;
18574;SDS011;9417;16.484;102.872;2024-02-26T13:06:33;44.67;;;31.08;;
18574;SDS011;9417;16.484;102.872;2024-02-26T13:11:09;45.85;;;30.25;;
18574;SDS011;9417;16.484;102.872;2024-02-26T13:15:20;46.72;;;28.92;;
18574;SDS011;9417;16.484;102.872;2024-02-26T13:23:55;41.92;;;28.25;;
18574;SDS011;9417;16.484;102.872;2024-02-26T13:28:09;43.70;;;29.30;;
18574;SDS011;9417;16.484;102.872;2024-02-26T13:42:09;49.60;;;35.90;;
18574;SDS011;9417;16.484;102.872;2024-02-26T13:46:26;44.83;;;35.10;;
18574;SDS011;9417;16.484;102.872;2024-02-26T13:50:29;43.33;;;32.10;;
18574;SDS011;9417;16.484;102.872;2024-02-26T13:54:43;43.35;;;31.92;;
18574;SDS011;9417;16.484;102.872;2024-02-26T13:58:55;41.83;;;32.92;;
18574;SDS011;9417;16.484;102.872;2024-02-26T14:03:12;43.92;;;32.72;;
18574;SDS011;9417;16.484;102.872;2024-02-26T14:08:16;45.72;;;35.13;;
18574;SDS011;9417;16.484;102.872;2024-02-26T14:12:55;42.13;;;35.17;;
18574;SDS011;9417;16.484;102.872;2024-02-26T14:22:15;45.55;;;34.28;;
18574;SDS011;9417;16.484;102.872;2024-02-26T14:26:24;41.92;;;33.80;;
18574;SDS011;9417;16.484;102.872;2024-02-26T14:35:27;47.83;;;34.53;;
18574;SDS011;9417;16.484;102.872;2024-02-26T14:50:01;47.75;;;36.63;;
18574;SDS011;9417;16.484;102.872;2024-02-26T14:59:25;46.65;;;38.42;;
18574;SDS011;9417;16.484;102.872;2024-02-26T15:04:00;45.95;;;35.65;;
18574;SDS011;9417;16.484;102.872;2024-02-26T15:08:05;47.78;;;34.60;;
18574;SDS011;9417;16.484;102.872;2024-02-26T15:12:15;41.55;;;33.97;;
18574;SDS011;9417;16.484;102.872;2024-02-26T15:22:22;40.75;;;32.45;;
18574;SDS011;9417;16.484;102.872;2024-02-26T15:27:33;39.75;;;32.00;;
18574;SDS011;9417;16.484;102.872;2024-02-26T15:42:07;46.28;;;32.53;;
18574;SDS011;9417;16.484;102.872;2024-02-26T15:51:54;43.15;;;35.45;;
18574;SDS011;9417;16.484;102.872;2024-02-26T15:56:06;46.42;;;34.90;;
18574;SDS011;9417;16.484;102.872;2024-02-26T16:00:33;46.90;;;36.72;;
18574;SDS011;9417;16.484;102.872;2024-02-26T16:13:44;53.83;;;38.55;;
18574;SDS011;9417;16.484;102.872;2024-02-26T16:18:26;54.67;;;40.13;;
18574;SDS011;9417;16.484;102.872;2024-02-26T16:27:27;50.45;;;40.17;;
18574;SDS011;9417;16.484;102.872;2024-02-26T16:31:33;47.53;;;38.63;;
18574;SDS011;9417;16.484;102.872;2024-02-26T16:49:45;43.80;;;35.95;;
18574;SDS011;9417;16.484;102.872;2024-02-26T16:53:55;40.92;;;36.47;;
18574;SDS011;9417;16.484;102.872;2024-02-26T16:58:05;48.33;;;41.42;;
18574;SDS011;9417;16.484;102.872;2024-02-26T17:07:10;46.22;;;39.42;;
18574;SDS011;9417;16.484;102.872;2024-02-26T17:11:34;46.60;;;41.13;;
18574;SDS011;9417;16.484;102.872;2024-02-26T17:16:22;57.95;;;48.03;;
18574;SDS011;9417;16.484;102.872;2024-02-26T17:20:36;57.25;;;47.70;;
18574;SDS011;9417;16.484;102.872;2024-02-26T17:35:11;46.15;;;38.83;;
18574;SDS011;9417;16.484;102.872;2024-02-26T17:44:37;43.95;;;33.42;;
18574;SDS011;9417;16.484;102.872;2024-02-26T19:27:02;31.95;;;25.48;;
18574;SDS011;9417;16.484;102.872;2024-02-26T19:31:51;27.83;;;24.33;;
18574;SDS011;9417;16.484;102.872;2024-02-26T19:36:02;33.50;;;23.55;;
18574;SDS011;9417;16.484;102.872;2024-02-26T19:41:06;31.15;;;24.45;;
18574;SDS011;9417;16.484;102.872;2024-02-26T19:55:19;29.80;;;23.83;;
18574;SDS011;9417;16.484;102.872;2024-02-26T20:10:03;27.00;;;21.93;;
18574;SDS011;9417;16.484;102.872;2024-02-26T20:14:51;26.27;;;20.75;;
18574;SDS011;9417;16.484;102.872;2024-02-26T20:24:21;26.60;;;21.98;;
18574;SDS011;9417;16.484;102.872;2024-02-26T20:29:01;27.77;;;21.73;;
18574;SDS011;9417;16.484;102.872;2024-02-26T21:03:41;20.15;;;13.80;;
18574;SDS011;9417;16.484;102.872;2024-02-26T21:38:35;18.03;;;11.47;;
18574;SDS011;9417;16.484;102.872;2024-02-26T22:02:42;13.43;;;10.32;;
18574;SDS011;9417;16.484;102.872;2024-02-26T23:43:18;17.15;;;10.75;;
18574;SDS011;9417;16.484;102.872;2024-02-26T23:52:32;15.95;;;11.02;;
